createdAt,value
2023-03-24T00:00:18.415Z,100.00
2023-03-24T00:01:20.929Z,100.00
2023-03-24T00:02:23.553Z,100.00
2023-03-24T00:03:27.647Z,100.00
2023-03-24T00:04:30.676Z,100.00
2023-03-24T00:05:33.774Z,100.00
2023-03-24T00:06:37.010Z,100.00
2023-03-24T00:07:40.262Z,100.00
2023-03-24T00:08:44.149Z,100.00
2023-03-24T00:09:46.613Z,100.00
2023-03-24T00:10:49.376Z,100.00
2023-03-24T00:11:51.905Z,100.00
2023-03-24T00:12:54.419Z,100.00
2023-03-24T00:13:58.685Z,100.00
2023-03-24T00:15:02.944Z,100.00
2023-03-24T00:16:11.490Z,100.00
2023-03-24T00:17:14.103Z,100.00
2023-03-24T00:18:16.619Z,100.00
2023-03-24T00:19:20.226Z,100.00
2023-03-24T00:20:24.060Z,100.00
2023-03-24T00:21:27.064Z,100.00
2023-03-24T00:22:30.079Z,100.00
2023-03-24T00:23:33.811Z,100.00
2023-03-24T00:24:36.421Z,100.00
2023-03-24T00:25:40.216Z,100.00
2023-03-24T00:26:43.147Z,100.00
2023-03-24T00:27:49.056Z,100.00
2023-03-24T00:28:51.788Z,100.00
2023-03-24T00:29:54.563Z,100.00
2023-03-24T00:30:57.531Z,100.00
2023-03-24T00:32:00.077Z,100.00
2023-03-24T00:33:02.755Z,100.00
2023-03-24T00:34:07.996Z,100.00
2023-03-24T00:35:12.932Z,100.00
2023-03-24T00:36:17.050Z,100.00
2023-03-24T00:37:19.645Z,100.00
2023-03-24T00:38:22.275Z,100.00
2023-03-24T00:39:24.924Z,100.00
2023-03-24T00:40:27.955Z,100.00
2023-03-24T00:41:31.756Z,100.00
2023-03-24T00:42:35.600Z,100.00
2023-03-24T00:43:38.721Z,100.00
2023-03-24T00:44:41.192Z,100.00
2023-03-24T00:45:46.159Z,100.00
2023-03-24T00:46:56.047Z,100.00
2023-03-24T00:47:59.637Z,100.00
2023-03-24T00:49:07.042Z,100.00
2023-03-24T00:50:14.007Z,100.00
2023-03-24T00:51:16.532Z,100.00
2023-03-24T00:52:21.927Z,100.00
2023-03-24T00:53:26.128Z,100.00
2023-03-24T00:54:32.156Z,100.00
2023-03-24T00:55:34.647Z,100.00
2023-03-24T00:56:40.796Z,100.00
2023-03-24T00:57:50.201Z,100.00
2023-03-24T00:58:57.884Z,100.00
2023-03-24T01:00:09.329Z,100.00
2023-03-24T01:01:11.875Z,100.00
2023-03-24T01:02:25.291Z,100.00
2023-03-24T01:03:28.170Z,100.00
2023-03-24T01:04:30.931Z,100.00
2023-03-24T01:05:33.965Z,100.00
2023-03-24T01:06:37.414Z,100.00
2023-03-24T01:07:41.733Z,100.00
2023-03-24T01:08:45.574Z,100.00
2023-03-24T01:09:57.401Z,100.00
2023-03-24T01:11:01.293Z,100.00
2023-03-24T01:12:05.149Z,100.00
2023-03-24T01:13:07.653Z,100.00
2023-03-24T01:14:12.134Z,100.00
2023-03-24T01:15:17.738Z,100.00
2023-03-24T01:16:25.877Z,100.00
2023-03-24T01:17:29.832Z,100.00
2023-03-24T01:18:35.021Z,100.00
2023-03-24T01:19:37.544Z,100.00
2023-03-24T01:20:40.897Z,100.00
2023-03-24T01:21:43.549Z,100.00
2023-03-24T01:22:46.442Z,100.00
2023-03-24T01:23:48.950Z,100.00
2023-03-24T01:24:52.420Z,100.00
2023-03-24T01:25:54.940Z,100.00
2023-03-24T01:26:57.472Z,100.00
2023-03-24T01:28:00.002Z,100.00
2023-03-24T01:29:02.746Z,100.00
2023-03-24T01:30:07.182Z,100.00
2023-03-24T01:31:11.147Z,100.00
2023-03-24T01:32:13.905Z,100.00
2023-03-24T01:33:16.797Z,100.00
2023-03-24T01:34:19.546Z,100.00
2023-03-24T01:35:23.743Z,100.00
2023-03-24T01:36:26.385Z,100.00
2023-03-24T01:37:28.914Z,100.00
2023-03-24T01:38:31.549Z,100.00
2023-03-24T01:39:34.432Z,100.00
2023-03-24T01:40:40.678Z,100.00
2023-03-24T01:41:43.554Z,100.00
2023-03-24T01:42:46.192Z,100.00
2023-03-24T01:43:48.836Z,100.00
2023-03-24T01:44:54.832Z,100.00
2023-03-24T01:46:19.992Z,100.00
2023-03-24T01:47:22.941Z,100.00
2023-03-24T01:48:46.574Z,100.00
2023-03-24T01:49:55.448Z,100.00
2023-03-24T01:51:26.156Z,100.00
2023-03-24T01:52:35.399Z,100.00
2023-03-24T01:53:45.013Z,100.00
2023-03-24T01:54:52.803Z,100.00
2023-03-24T01:55:57.247Z,100.00
2023-03-24T01:57:10.752Z,100.00
2023-03-24T01:58:16.685Z,100.00
2023-03-24T01:59:39.967Z,100.00
2023-03-24T02:00:53.663Z,100.00
2023-03-24T02:02:28.872Z,100.00
2023-03-24T02:03:36.755Z,100.00
2023-03-24T02:04:50.530Z,100.00
2023-03-24T02:05:57.773Z,100.00
2023-03-24T02:07:12.733Z,100.00
2023-03-24T02:08:38.169Z,100.00
2023-03-24T02:09:40.812Z,100.00
2023-03-24T02:10:44.633Z,100.00
2023-03-24T02:11:47.659Z,100.00
2023-03-24T02:12:50.299Z,100.00
2023-03-24T02:13:53.656Z,100.00
2023-03-24T02:14:57.740Z,100.00
2023-03-24T02:16:20.214Z,100.00
2023-03-24T02:17:45.085Z,100.00
2023-03-24T02:19:12.655Z,100.00
2023-03-24T02:20:30.501Z,100.00
2023-03-24T02:22:03.389Z,100.00
2023-03-24T02:23:14.708Z,100.00
2023-03-24T02:24:59.785Z,100.00
2023-03-24T02:26:11.307Z,100.00
2023-03-24T02:27:51.275Z,100.00
2023-03-24T02:29:18.508Z,100.00
2023-03-24T02:30:40.591Z,100.00
2023-03-24T02:32:12.748Z,100.00
2023-03-24T02:33:53.077Z,100.00
2023-03-24T02:35:07.481Z,100.00
2023-03-24T02:36:19.316Z,100.00
2023-03-24T02:37:47.798Z,100.00
2023-03-24T02:39:13.957Z,100.00
2023-03-24T02:40:44.311Z,100.00
2023-03-24T02:42:14.808Z,100.00
2023-03-24T02:43:29.198Z,100.00
2023-03-24T02:44:37.719Z,100.00
2023-03-24T02:45:59.011Z,100.00
2023-03-24T02:47:10.720Z,100.00
2023-03-24T02:48:46.845Z,100.00
2023-03-24T02:50:20.678Z,100.00
2023-03-24T02:51:32.322Z,100.00
2023-03-24T02:52:47.325Z,100.00
2023-03-24T02:54:05.440Z,100.00
2023-03-24T02:55:22.724Z,100.00
2023-03-24T02:56:46.920Z,100.00
2023-03-24T02:58:37.244Z,100.00
2023-03-24T02:59:49.131Z,100.00
2023-03-24T03:01:19.900Z,100.00
2023-03-24T03:02:59.243Z,100.00
2023-03-24T03:04:13.033Z,100.00
2023-03-24T03:05:23.094Z,100.00
2023-03-24T03:06:37.030Z,100.00
2023-03-24T03:07:41.469Z,100.00
2023-03-24T03:08:47.824Z,100.00
2023-03-24T03:10:06.177Z,100.00
2023-03-24T03:11:14.215Z,100.00
2023-03-24T03:12:19.979Z,100.00
2023-03-24T03:13:32.712Z,100.00
2023-03-24T03:14:56.934Z,100.00
2023-03-24T03:16:16.045Z,100.00
2023-03-24T03:17:30.860Z,100.00
2023-03-24T03:18:40.743Z,100.00
2023-03-24T03:19:50.463Z,100.00
2023-03-24T03:20:58.496Z,100.00
2023-03-24T03:22:04.740Z,100.00
2023-03-24T03:23:13.278Z,100.00
2023-03-24T03:24:26.931Z,100.00
2023-03-24T03:25:35.947Z,100.00
2023-03-24T03:26:39.312Z,100.00
2023-03-24T03:27:46.879Z,100.00
2023-03-24T03:28:57.935Z,100.00
2023-03-24T03:30:07.749Z,100.00
2023-03-24T03:31:15.585Z,100.00
2023-03-24T03:32:24.912Z,100.00
2023-03-24T03:33:40.871Z,100.00
2023-03-24T03:34:52.994Z,100.00
2023-03-24T03:36:14.381Z,100.00
2023-03-24T03:37:34.878Z,100.00
2023-03-24T03:39:16.349Z,100.00
2023-03-24T03:40:27.922Z,100.00
2023-03-24T03:41:39.721Z,100.00
2023-03-24T03:42:42.448Z,100.00
2023-03-24T03:43:47.359Z,100.00
2023-03-24T03:44:49.999Z,100.00
2023-03-24T03:45:53.148Z,100.00
2023-03-24T03:46:59.122Z,100.00
2023-03-24T03:48:19.883Z,100.00
2023-03-24T03:49:22.890Z,100.00
2023-03-24T03:50:25.659Z,100.00
2023-03-24T03:51:28.528Z,100.00
2023-03-24T03:52:32.852Z,100.00
2023-03-24T03:53:51.697Z,100.00
2023-03-24T03:54:56.005Z,100.00
2023-03-24T03:55:59.135Z,100.00
2023-03-24T03:57:03.736Z,100.00
2023-03-24T03:58:18.097Z,100.00
2023-03-24T03:59:37.169Z,100.00
2023-03-24T04:00:44.852Z,100.00
2023-03-24T04:02:18.016Z,100.00
2023-03-24T04:03:53.763Z,100.00
2023-03-24T04:06:02.382Z,100.00
2023-03-24T04:07:45.573Z,100.00
2023-03-24T04:09:48.814Z,100.00
2023-03-24T04:11:24.944Z,100.00
2023-03-24T04:13:24.350Z,100.00
2023-03-24T04:14:58.915Z,100.00
2023-03-24T04:16:43.974Z,100.00
2023-03-24T04:18:01.235Z,100.00
2023-03-24T04:19:24.706Z,100.00
2023-03-24T04:20:46.869Z,100.00
2023-03-24T04:21:55.303Z,100.00
2023-03-24T04:23:18.369Z,100.00
2023-03-24T04:24:26.507Z,100.00
2023-03-24T04:25:41.037Z,100.00
2023-03-24T04:27:00.955Z,100.00
2023-03-24T04:28:20.869Z,100.00
2023-03-24T04:29:48.113Z,100.00
2023-03-24T04:30:57.948Z,100.00
2023-03-24T04:32:19.792Z,100.00
2023-03-24T04:34:03.271Z,100.00
2023-03-24T04:35:11.752Z,100.00
2023-03-24T04:36:44.038Z,100.00
2023-03-24T04:38:17.331Z,100.00
2023-03-24T04:39:28.383Z,100.00
2023-03-24T04:40:36.837Z,100.00
2023-03-24T04:41:41.756Z,100.00
2023-03-24T04:42:54.005Z,100.00
2023-03-24T04:44:01.797Z,100.00
2023-03-24T04:45:08.162Z,100.00
2023-03-24T04:46:29.039Z,100.00
2023-03-24T04:47:54.070Z,100.00
2023-03-24T04:49:10.209Z,100.00
2023-03-24T04:50:26.529Z,100.00
2023-03-24T04:51:29.412Z,100.00
2023-03-24T04:52:50.164Z,100.00
2023-03-24T04:53:52.928Z,100.00
2023-03-24T04:54:57.613Z,100.00
2023-03-24T04:56:13.221Z,100.00
2023-03-24T04:57:34.688Z,100.00
2023-03-24T04:58:40.571Z,100.00
2023-03-24T04:59:43.160Z,100.00
2023-03-24T05:00:46.865Z,100.00
2023-03-24T05:01:50.338Z,100.00
2023-03-24T05:03:16.814Z,100.00
2023-03-24T05:04:21.765Z,100.00
2023-03-24T05:05:24.490Z,100.00
2023-03-24T05:06:27.782Z,100.00
2023-03-24T05:07:31.842Z,100.00
2023-03-24T05:08:37.213Z,100.00
2023-03-24T05:09:39.735Z,100.00
2023-03-24T05:10:43.333Z,100.00
2023-03-24T05:11:46.960Z,100.00
2023-03-24T05:12:49.719Z,100.00
2023-03-24T05:14:30.504Z,100.00
2023-03-24T05:15:33.734Z,100.00
2023-03-24T05:16:55.815Z,100.00
2023-03-24T05:18:00.583Z,100.00
2023-03-24T05:19:04.335Z,100.00
2023-03-24T05:20:11.010Z,100.00
2023-03-24T05:21:16.580Z,100.00
2023-03-24T05:22:19.112Z,100.00
2023-03-24T05:23:21.864Z,100.00
2023-03-24T05:24:26.070Z,100.00
2023-03-24T05:25:28.604Z,100.00
2023-03-24T05:26:33.179Z,100.00
2023-03-24T05:27:56.304Z,100.00
2023-03-24T05:29:01.476Z,100.00
2023-03-24T05:30:06.517Z,100.00
2023-03-24T05:31:10.650Z,100.00
2023-03-24T05:32:33.412Z,100.00
2023-03-24T05:33:36.028Z,100.00
2023-03-24T05:34:39.150Z,100.00
2023-03-24T05:35:45.659Z,100.00
2023-03-24T05:36:48.508Z,100.00
2023-03-24T05:37:54.874Z,100.00
2023-03-24T05:38:57.754Z,100.00
2023-03-24T05:40:09.520Z,100.00
2023-03-24T05:41:25.967Z,100.00
2023-03-24T05:42:28.848Z,100.00
2023-03-24T05:43:32.435Z,100.00
2023-03-24T05:44:53.324Z,100.00
2023-03-24T05:46:01.862Z,100.00
2023-03-24T05:47:07.835Z,100.00
2023-03-24T05:48:10.424Z,100.00
2023-03-24T05:49:32.917Z,100.00
2023-03-24T05:50:36.419Z,100.00
2023-03-24T05:51:38.917Z,100.00
2023-03-24T05:52:42.760Z,100.00
2023-03-24T05:54:07.607Z,100.00
2023-03-24T05:55:19.370Z,100.00
2023-03-24T05:56:24.761Z,100.00
2023-03-24T05:57:34.859Z,100.00
2023-03-24T05:58:54.400Z,100.00
2023-03-24T05:59:57.653Z,100.00
2023-03-24T06:01:39.529Z,100.00
2023-03-24T06:02:53.385Z,100.00
2023-03-24T06:04:25.047Z,100.00
2023-03-24T06:05:32.209Z,100.00
2023-03-24T06:06:35.329Z,100.00
2023-03-24T06:07:40.372Z,100.00
2023-03-24T06:08:45.205Z,100.00
2023-03-24T06:09:51.091Z,100.00
2023-03-24T06:10:54.413Z,100.00
2023-03-24T06:11:58.861Z,100.00
2023-03-24T06:13:01.979Z,100.00
2023-03-24T06:14:04.733Z,100.00
2023-03-24T06:15:17.758Z,100.00
2023-03-24T06:16:24.066Z,100.00
2023-03-24T06:17:37.588Z,100.00
2023-03-24T06:18:52.609Z,100.00
2023-03-24T06:20:16.205Z,100.00
2023-03-24T06:21:32.575Z,100.00
2023-03-24T06:22:36.537Z,100.00
2023-03-24T06:23:42.299Z,100.00
2023-03-24T06:24:48.060Z,100.00
2023-03-24T06:25:50.975Z,100.00
2023-03-24T06:27:02.424Z,100.00
2023-03-24T06:28:12.409Z,100.00
2023-03-24T06:29:19.744Z,100.00
2023-03-24T06:30:22.872Z,100.00
2023-03-24T06:31:29.718Z,100.00
2023-03-24T06:32:32.277Z,100.00
2023-03-24T06:33:35.108Z,100.00
2023-03-24T06:34:40.608Z,100.00
2023-03-24T06:36:02.103Z,100.00
2023-03-24T06:37:06.669Z,100.00
2023-03-24T06:38:09.793Z,100.00
2023-03-24T06:39:13.169Z,100.00
2023-03-24T06:40:17.667Z,100.00
2023-03-24T06:41:31.522Z,100.00
2023-03-24T06:42:36.195Z,100.00
2023-03-24T06:43:38.838Z,100.00
2023-03-24T06:44:41.474Z,100.00
2023-03-24T06:45:46.095Z,100.00
2023-03-24T06:46:58.410Z,100.00
2023-03-24T06:48:01.797Z,100.00
2023-03-24T06:49:04.902Z,100.00
2023-03-24T06:50:07.887Z,100.00
2023-03-24T06:51:10.520Z,100.00
2023-03-24T06:52:14.798Z,100.00
2023-03-24T06:53:18.203Z,100.00
2023-03-24T06:54:22.286Z,100.00
2023-03-24T06:55:24.924Z,100.00
2023-03-24T06:56:30.341Z,100.00
2023-03-24T06:57:34.419Z,100.00
2023-03-24T06:58:56.008Z,100.00
2023-03-24T07:00:06.327Z,100.00
2023-03-24T07:01:13.406Z,100.00
2023-03-24T07:02:36.225Z,100.00
2023-03-24T07:03:39.422Z,100.00
2023-03-24T07:05:01.219Z,100.00
2023-03-24T07:06:14.611Z,100.00
2023-03-24T07:08:38.316Z,100.00
2023-03-24T07:09:41.976Z,100.00
2023-03-24T07:10:44.672Z,100.00
2023-03-24T07:11:47.374Z,100.00
2023-03-24T07:12:51.234Z,100.00
2023-03-24T07:13:53.743Z,100.00
2023-03-24T07:14:56.379Z,100.00
2023-03-24T07:15:58.935Z,100.00
2023-03-24T07:17:02.518Z,100.00
2023-03-24T07:18:23.377Z,100.00
2023-03-24T07:19:32.621Z,100.00
2023-03-24T07:20:57.942Z,100.00
2023-03-24T07:22:00.822Z,100.00
2023-03-24T07:23:19.907Z,100.00
2023-03-24T07:24:31.614Z,100.00
2023-03-24T07:25:45.581Z,100.00
2023-03-24T07:26:57.110Z,100.00
2023-03-24T07:28:00.241Z,100.00
2023-03-24T07:29:02.747Z,100.00
2023-03-24T07:30:37.246Z,100.00
2023-03-24T07:31:42.934Z,100.00
2023-03-24T07:32:49.383Z,100.00
2023-03-24T07:33:52.790Z,100.00
2023-03-24T07:34:55.791Z,100.00
2023-03-24T07:35:58.932Z,100.00
2023-03-24T07:37:02.631Z,100.00
2023-03-24T07:38:05.394Z,100.00
2023-03-24T07:39:09.593Z,100.00
2023-03-24T07:40:13.447Z,100.00
2023-03-24T07:41:16.077Z,100.00
2023-03-24T07:42:25.670Z,100.00
2023-03-24T07:43:51.361Z,100.00
2023-03-24T07:45:11.877Z,100.00
2023-03-24T07:46:14.443Z,100.00
2023-03-24T07:47:17.664Z,100.00
2023-03-24T07:48:21.842Z,100.00
2023-03-24T07:49:24.717Z,100.00
2023-03-24T07:50:36.963Z,100.00
2023-03-24T07:51:47.046Z,100.00
2023-03-24T07:53:09.859Z,100.00
2023-03-24T07:54:13.002Z,100.00
2023-03-24T07:55:19.933Z,100.00
2023-03-24T07:56:39.065Z,100.00
2023-03-24T07:57:47.276Z,100.00
2023-03-24T07:58:49.851Z,100.00
2023-03-24T08:00:00.012Z,100.00
2023-03-24T08:01:18.249Z,100.00
2023-03-24T08:02:24.073Z,100.00
2023-03-24T08:03:37.901Z,100.00
2023-03-24T08:05:00.745Z,100.00
2023-03-24T08:06:19.453Z,100.00
2023-03-24T08:07:31.939Z,100.00
2023-03-24T08:08:35.435Z,100.00
2023-03-24T08:09:38.054Z,100.00
2023-03-24T08:10:40.586Z,100.00
2023-03-24T08:11:43.108Z,100.00
2023-03-24T08:12:46.346Z,100.00
2023-03-24T08:13:48.856Z,100.00
2023-03-24T08:16:08.452Z,100.00
2023-03-24T08:17:11.669Z,100.00
2023-03-24T08:18:14.186Z,100.00
2023-03-24T08:19:16.819Z,100.00
2023-03-24T08:20:21.320Z,100.00
2023-03-24T08:21:24.982Z,100.00
2023-03-24T08:22:28.122Z,100.00
2023-03-24T08:23:30.749Z,100.00
2023-03-24T08:24:33.266Z,100.00
2023-03-24T08:25:36.624Z,100.00
2023-03-24T08:26:40.250Z,100.00
2023-03-24T08:27:47.383Z,100.00
2023-03-24T08:28:49.943Z,100.00
2023-03-24T08:29:52.240Z,100.00
2023-03-24T08:30:54.800Z,100.00
2023-03-24T08:31:57.165Z,100.00
2023-03-24T08:33:02.713Z,100.00
2023-03-24T08:34:06.661Z,100.00
2023-03-24T08:35:12.542Z,100.00
2023-03-24T08:36:15.126Z,100.00
2023-03-24T08:37:17.671Z,100.00
2023-03-24T08:38:23.348Z,100.00
2023-03-24T08:39:25.831Z,100.00
2023-03-24T08:40:30.285Z,100.00
2023-03-24T08:41:35.280Z,100.00
2023-03-24T08:42:37.851Z,100.00
2023-03-24T08:43:40.600Z,100.00
2023-03-24T08:44:43.115Z,100.00
2023-03-24T08:45:46.065Z,100.00
2023-03-24T08:46:48.555Z,100.00
2023-03-24T08:47:52.567Z,100.00
2023-03-24T08:48:55.120Z,100.00
2023-03-24T08:50:00.540Z,100.00
2023-03-24T08:51:16.729Z,100.00
2023-03-24T08:52:19.237Z,100.00
2023-03-24T08:53:21.890Z,100.00
2023-03-24T08:54:26.220Z,100.00
2023-03-24T08:55:28.751Z,100.00
2023-03-24T08:56:31.503Z,100.00
2023-03-24T08:57:34.006Z,100.00
2023-03-24T08:58:36.653Z,100.00
2023-03-24T08:59:39.161Z,100.00
2023-03-24T09:00:42.164Z,100.00
2023-03-24T09:01:45.108Z,100.00
2023-03-24T09:02:51.946Z,100.00
2023-03-24T09:03:54.527Z,100.00
2023-03-24T09:04:57.069Z,100.00
2023-03-24T09:05:59.666Z,100.00
2023-03-24T09:07:03.149Z,100.00
2023-03-24T09:08:05.808Z,100.00
2023-03-24T09:09:08.334Z,100.00
2023-03-24T09:10:11.334Z,100.00
2023-03-24T09:11:16.372Z,100.00
2023-03-24T09:12:18.773Z,100.00
2023-03-24T09:13:21.526Z,100.00
2023-03-24T09:14:24.771Z,100.00
2023-03-24T09:15:27.296Z,100.00
2023-03-24T09:16:29.763Z,100.00
2023-03-24T09:17:32.830Z,100.00
2023-03-24T09:18:35.705Z,100.00
2023-03-24T09:19:38.211Z,100.00
2023-03-24T09:20:40.976Z,100.00
2023-03-24T09:21:46.136Z,100.00
2023-03-24T09:22:48.777Z,100.00
2023-03-24T09:23:51.671Z,100.00
2023-03-24T09:24:54.326Z,100.00
2023-03-24T09:25:56.937Z,100.00
2023-03-24T09:26:59.466Z,100.00
2023-03-24T09:28:02.530Z,100.00
2023-03-24T09:29:05.217Z,100.00
2023-03-24T09:30:09.579Z,100.00
2023-03-24T09:31:12.204Z,100.00
2023-03-24T09:32:14.703Z,100.00
2023-03-24T09:33:17.581Z,100.00
2023-03-24T09:34:21.551Z,100.00
2023-03-24T09:35:24.060Z,100.00
2023-03-24T09:36:27.218Z,100.00
2023-03-24T09:37:32.973Z,100.00
2023-03-24T09:38:35.706Z,100.00
2023-03-24T09:39:38.223Z,100.00
2023-03-24T09:40:43.659Z,100.00
2023-03-24T09:41:47.834Z,100.00
2023-03-24T09:42:59.351Z,100.00
2023-03-24T09:44:19.519Z,100.00
2023-03-24T09:45:24.192Z,100.00
2023-03-24T09:46:39.247Z,100.00
2023-03-24T09:47:46.776Z,100.00
2023-03-24T09:48:55.271Z,100.00
2023-03-24T09:50:07.513Z,100.00
2023-03-24T09:51:26.712Z,100.00
2023-03-24T09:52:36.917Z,100.00
2023-03-24T09:54:10.283Z,100.00
2023-03-24T09:55:19.530Z,100.00
2023-03-24T09:56:23.716Z,100.00
2023-03-24T09:57:32.978Z,100.00
2023-03-24T09:58:36.571Z,100.00
2023-03-24T09:59:40.163Z,100.00
2023-03-24T10:00:44.688Z,100.00
2023-03-24T10:01:48.575Z,100.00
2023-03-24T10:02:53.017Z,100.00
2023-03-24T10:03:59.217Z,100.00
2023-03-24T10:05:01.778Z,100.00
2023-03-24T10:06:18.224Z,100.00
2023-03-24T10:07:39.691Z,100.00
2023-03-24T10:08:44.642Z,100.00
2023-03-24T10:09:56.968Z,100.00
2023-03-24T10:11:08.010Z,100.00
2023-03-24T10:12:35.855Z,100.00
2023-03-24T10:14:04.383Z,100.00
2023-03-24T10:15:10.544Z,100.00
2023-03-24T10:16:30.962Z,100.00
2023-03-24T10:17:43.941Z,100.00
2023-03-24T10:19:30.465Z,94.94
2023-03-24T10:20:54.821Z,89.83
2023-03-24T10:22:35.498Z,88.30
2023-03-24T10:23:49.901Z,87.27
2023-03-24T10:25:21.705Z,87.43
2023-03-24T10:26:42.222Z,84.00
2023-03-24T10:27:53.989Z,83.94
2023-03-24T10:29:14.388Z,78.36
2023-03-24T10:30:23.871Z,77.34
2023-03-24T10:31:31.483Z,81.28
2023-03-24T10:32:35.918Z,81.72
2023-03-24T10:33:43.066Z,79.21
2023-03-24T10:34:49.073Z,77.11
2023-03-24T10:36:02.128Z,75.93
2023-03-24T10:37:05.049Z,77.74
2023-03-24T10:38:17.878Z,75.91
2023-03-24T10:39:26.098Z,75.78
2023-03-24T10:40:36.714Z,72.51
2023-03-24T10:41:42.366Z,73.62
2023-03-24T10:42:48.856Z,72.43
2023-03-24T10:43:53.186Z,72.31
2023-03-24T10:44:56.159Z,73.08
2023-03-24T10:46:00.077Z,71.38
2023-03-24T10:47:05.762Z,71.30
2023-03-24T10:48:09.652Z,72.40
2023-03-24T10:49:12.130Z,69.41
2023-03-24T10:50:15.880Z,68.63
2023-03-24T10:51:21.604Z,66.41
2023-03-24T10:52:25.080Z,68.26
2023-03-24T10:53:27.733Z,67.56
2023-03-24T10:54:32.168Z,68.92
2023-03-24T10:55:39.979Z,69.08
2023-03-24T10:56:59.365Z,66.29
2023-03-24T10:58:02.174Z,64.45
2023-03-24T10:59:18.854Z,65.69
2023-03-24T11:00:29.695Z,62.98
2023-03-24T11:01:32.470Z,63.96
2023-03-24T11:02:37.914Z,63.00
2023-03-24T11:03:41.235Z,63.83
2023-03-24T11:04:55.814Z,65.35
2023-03-24T11:06:01.476Z,65.10
2023-03-24T11:07:14.668Z,64.05
2023-03-24T11:08:17.532Z,64.31
2023-03-24T11:09:22.366Z,69.98
2023-03-24T11:10:25.932Z,70.71
2023-03-24T11:11:31.983Z,70.07
2023-03-24T11:12:38.176Z,72.77
2023-03-24T11:13:40.826Z,76.40
2023-03-24T11:14:46.356Z,73.30
2023-03-24T11:16:12.184Z,76.89
2023-03-24T11:17:16.454Z,83.39
2023-03-24T11:18:19.588Z,90.63
2023-03-24T11:19:24.515Z,96.42
2023-03-24T11:20:41.467Z,100.00
2023-03-24T11:21:44.180Z,100.00
2023-03-24T11:23:11.437Z,100.00
2023-03-24T11:24:17.057Z,100.00
2023-03-24T11:25:19.700Z,100.00
2023-03-24T11:26:34.947Z,100.00
2023-03-24T11:27:43.109Z,93.92
2023-03-24T11:28:57.869Z,85.13
2023-03-24T11:30:00.384Z,80.22
2023-03-24T11:31:08.379Z,72.43
2023-03-24T11:32:25.753Z,68.57
2023-03-24T11:33:35.305Z,69.75
2023-03-24T11:34:44.806Z,70.57
2023-03-24T11:35:56.009Z,70.69
2023-03-24T11:37:25.116Z,70.31
2023-03-24T11:38:33.266Z,70.56
2023-03-24T11:39:35.915Z,70.84
2023-03-24T11:40:38.558Z,69.18
2023-03-24T11:41:52.488Z,68.08
2023-03-24T11:43:03.041Z,72.41
2023-03-24T11:44:25.733Z,71.54
2023-03-24T11:45:36.531Z,70.72
2023-03-24T11:46:42.310Z,69.13
2023-03-24T11:47:45.219Z,68.00
2023-03-24T11:48:58.960Z,65.60
2023-03-24T11:50:23.195Z,60.75
2023-03-24T11:51:44.081Z,58.63
2023-03-24T11:53:00.533Z,60.41
2023-03-24T11:54:09.999Z,58.25
2023-03-24T11:55:18.281Z,58.53
2023-03-24T11:56:31.615Z,57.65
2023-03-24T11:57:37.783Z,58.77
2023-03-24T11:58:48.042Z,59.13
2023-03-24T12:00:00.781Z,59.28
2023-03-24T12:01:12.408Z,57.88
2023-03-24T12:02:59.427Z,54.51
2023-03-24T12:04:08.344Z,53.33
2023-03-24T12:05:22.900Z,54.30
2023-03-24T12:06:40.383Z,53.25
2023-03-24T12:08:28.496Z,54.05
2023-03-24T12:10:09.299Z,52.33
2023-03-24T12:11:25.497Z,51.91
2023-03-24T12:12:38.478Z,52.27
2023-03-24T12:13:49.132Z,52.58
2023-03-24T12:15:20.639Z,53.16
2023-03-24T12:16:30.970Z,53.29
2023-03-24T12:17:48.215Z,53.93
2023-03-24T12:18:53.229Z,54.70
2023-03-24T12:20:23.467Z,51.98
2023-03-24T12:21:47.003Z,52.48
2023-03-24T12:23:07.988Z,52.33
2023-03-24T12:24:29.701Z,53.61
2023-03-24T12:26:10.522Z,51.89
2023-03-24T12:27:27.306Z,52.10
2023-03-24T12:28:54.303Z,49.62
2023-03-24T12:30:41.962Z,51.42
2023-03-24T12:31:56.464Z,50.76
2023-03-24T12:33:19.386Z,51.77
2023-03-24T12:34:30.667Z,51.52
2023-03-24T12:36:09.354Z,50.07
2023-03-24T12:37:37.747Z,49.39
2023-03-24T12:38:52.027Z,51.05
2023-03-24T12:40:07.149Z,52.04
2023-03-24T12:41:18.325Z,52.67
2023-03-24T12:42:23.839Z,53.83
2023-03-24T12:43:56.233Z,54.37
2023-03-24T12:45:44.408Z,54.46
2023-03-24T12:47:02.354Z,55.51
2023-03-24T12:48:37.041Z,59.12
2023-03-24T12:50:18.440Z,63.16
2023-03-24T12:52:03.317Z,64.93
2023-03-24T12:53:25.761Z,63.45
2023-03-24T12:55:04.998Z,64.68
2023-03-24T12:56:16.412Z,63.63
2023-03-24T12:57:24.922Z,63.31
2023-03-24T12:58:33.943Z,63.52
2023-03-24T12:59:41.750Z,61.61
2023-03-24T13:00:58.556Z,59.16
2023-03-24T13:02:20.048Z,59.47
2023-03-24T13:03:31.340Z,60.83
2023-03-24T13:04:38.124Z,62.73
2023-03-24T13:06:04.504Z,64.10
2023-03-24T13:07:18.450Z,64.75
2023-03-24T13:08:29.559Z,64.86
2023-03-24T13:09:40.292Z,65.33
2023-03-24T13:10:43.893Z,66.55
2023-03-24T13:11:59.376Z,66.26
2023-03-24T13:13:18.462Z,65.10
2023-03-24T13:14:45.576Z,67.07
2023-03-24T13:15:52.417Z,70.22
2023-03-24T13:17:03.591Z,71.07
2023-03-24T13:18:12.311Z,72.40
2023-03-24T13:19:23.621Z,72.42
2023-03-24T13:20:42.459Z,72.32
2023-03-24T13:21:45.597Z,70.56
2023-03-24T13:22:48.837Z,70.19
2023-03-24T13:24:18.581Z,68.40
2023-03-24T13:25:49.549Z,69.12
2023-03-24T13:27:24.361Z,68.76
2023-03-24T13:28:38.760Z,68.46
2023-03-24T13:29:59.024Z,67.75
2023-03-24T13:31:03.708Z,67.25
2023-03-24T13:32:21.741Z,66.44
2023-03-24T13:33:29.752Z,64.74
2023-03-24T13:34:49.194Z,65.96
2023-03-24T13:36:09.753Z,63.94
2023-03-24T13:37:23.403Z,64.57
2023-03-24T13:38:49.197Z,63.87
2023-03-24T13:39:57.354Z,64.51
2023-03-24T13:41:04.820Z,66.00
2023-03-24T13:42:07.318Z,65.08
2023-03-24T13:43:18.848Z,64.84
2023-03-24T13:44:44.183Z,65.35
2023-03-24T13:45:51.730Z,66.84
2023-03-24T13:47:10.798Z,65.96
2023-03-24T13:48:13.256Z,67.23
2023-03-24T13:49:16.703Z,68.35
2023-03-24T13:50:19.449Z,69.66
2023-03-24T13:51:30.361Z,70.24
2023-03-24T13:52:36.756Z,70.21
2023-03-24T13:53:45.130Z,68.50
2023-03-24T13:54:49.682Z,68.45
2023-03-24T13:55:53.653Z,68.95
2023-03-24T13:57:18.722Z,70.84
2023-03-24T13:58:24.253Z,69.99
2023-03-24T13:59:30.969Z,69.09
2023-03-24T14:00:33.742Z,72.19
2023-03-24T14:01:45.685Z,70.48
2023-03-24T14:03:15.619Z,71.11
2023-03-24T14:04:46.096Z,71.01
2023-03-24T14:06:05.447Z,70.53
2023-03-24T14:07:33.764Z,70.91
2023-03-24T14:09:01.500Z,71.51
2023-03-24T14:10:20.975Z,71.34
2023-03-24T14:11:32.552Z,67.42
2023-03-24T14:13:15.034Z,70.78
2023-03-24T14:14:26.299Z,73.24
2023-03-24T14:15:33.921Z,71.80
2023-03-24T14:16:36.381Z,73.75
2023-03-24T14:17:44.680Z,73.32
2023-03-24T14:18:48.786Z,74.10
2023-03-24T14:20:02.551Z,72.20
2023-03-24T14:21:07.578Z,73.50
2023-03-24T14:22:14.553Z,70.29
2023-03-24T14:23:40.713Z,70.54
2023-03-24T14:24:46.246Z,74.30
2023-03-24T14:25:55.724Z,76.97
2023-03-24T14:26:59.300Z,78.73
2023-03-24T14:28:27.867Z,79.02
2023-03-24T14:29:54.473Z,79.54
2023-03-24T14:31:10.259Z,81.90
2023-03-24T14:32:20.472Z,81.08
2023-03-24T14:33:26.426Z,80.66
2023-03-24T14:34:30.745Z,82.01
2023-03-24T14:35:37.348Z,80.26
2023-03-24T14:36:45.152Z,78.54
2023-03-24T14:37:55.119Z,77.13
2023-03-24T14:39:25.594Z,75.96
2023-03-24T14:40:49.725Z,77.28
2023-03-24T14:41:52.829Z,78.56
2023-03-24T14:43:02.189Z,79.09
2023-03-24T14:44:06.150Z,78.19
2023-03-24T14:45:43.885Z,75.83
2023-03-24T14:46:48.246Z,75.35
2023-03-24T14:47:59.019Z,74.63
2023-03-24T14:49:07.476Z,73.56
2023-03-24T14:50:20.361Z,72.31
2023-03-24T14:51:36.492Z,71.09
2023-03-24T14:52:48.159Z,72.29
2023-03-24T14:53:51.288Z,74.70
2023-03-24T14:54:56.318Z,74.85
2023-03-24T14:55:59.685Z,74.39